1927 NOT_NAMED (1927039S15153)


IBTrACS version v04r00. Visit IBTrACS website for data access.
Please direct all questions to the IBTrACS Q and A forum

Storm track - Intensity - Wind Radii - Intensity Data - Source Data - All data

Summary Information

Storm ID 1927039S15153
Start Feb 7 23Z
Landfall Feb 11 15Z
End Feb 13 23Z
ATCF IDs
Track status Best track data.

Storm track plot

Map of storm track

Intensity plots

No Intensity information for this storm


Radial wind information

No radial wind information for this storm


Position and Intensity Table

BASIN ISO_TIME_________ NATURE LAT LON
degrees north degrees east
SP 1927-02-07 23:00:00 NR -15.30 152.70
SP 1927-02-08 00:00:00 NR -15.31 152.65
SP 03:00:00 NR -15.34 152.52
SP 06:00:00 NR -15.37 152.37
SP 09:00:00 NR -15.39 152.21
SP 11:00:00 NR -15.40 152.10
SP 12:00:00 NR -15.40 152.04
SP 15:00:00 NR -15.41 151.85
SP 18:00:00 NR -15.41 151.65
SP 21:00:00 NR -15.41 151.44
SP 23:00:00 NR -15.40 151.30
SP 1927-02-09 00:00:00 NR -15.39 151.23
SP 03:00:00 NR -15.36 151.03
SP 06:00:00 NR -15.33 150.83
SP 09:00:00 NR -15.31 150.63
SP 11:00:00 NR -15.30 150.50
SP 12:00:00 NR -15.30 150.43
SP 15:00:00 NR -15.31 150.24
SP 18:00:00 NR -15.34 150.04
SP 21:00:00 NR -15.37 149.84
SP 23:00:00 NR -15.40 149.70
SP 1927-02-10 00:00:00 NR -15.41 149.63
SP 03:00:00 NR -15.45 149.40
SP 06:00:00 NR -15.50 149.17
SP 09:00:00 NR -15.56 148.95
SP 11:00:00 NR -15.60 148.80
SP 12:00:00 NR -15.62 148.74
SP 15:00:00 NR -15.68 148.57
SP 18:00:00 NR -15.75 148.40
SP 21:00:00 NR -15.84 148.18
SP 23:00:00 NR -15.90 148.00
SP 1927-02-11 00:00:00 NR -15.93 147.90
SP 03:00:00 NR -16.05 147.55
SP 06:00:00 NR -16.17 147.13
SP 09:00:00 NR -16.31 146.65
SP 11:00:00 NR -16.40 146.30
SP 12:00:00 NR -16.45 146.10
SP 15:00:00 NR -16.59 145.45
SP 18:00:00 NR -16.74 144.78
SP 21:00:00 NR -16.89 144.15
SP 23:00:00 NR -17.00 143.80
SP 1927-02-12 00:00:00 NR -17.06 143.67
SP 03:00:00 NR -17.23 143.35
SP 06:00:00 NR -17.41 143.12
SP 09:00:00 NR -17.59 142.93
SP 11:00:00 NR -17.70 142.80
SP 12:00:00 NR -17.77 142.72
SP 15:00:00 NR -17.98 142.47
SP 18:00:00 NR -18.17 142.22
SP 21:00:00 NR -18.28 141.97
SP 23:00:00 NR -18.30 141.80
SP 1927-02-13 00:00:00 NR -18.29 141.71
SP 03:00:00 NR -18.19 141.42
SP 06:00:00 NR -17.99 141.14
SP 09:00:00 NR -17.72 140.91
SP 11:00:00 NR -17.50 140.80
SP 12:00:00 NR -17.38 140.76
SP 15:00:00 NR -17.01 140.68
SP 18:00:00 NR -16.61 140.66
SP 21:00:00 NR -16.19 140.68
SP 23:00:00 NR -15.90 140.70

Source Information

Agency Information
USA
TOKYO
CMA
HKO
NEWDELHI
REUNION
BOM
NADI
WELLINGTON
DS824
TD9636 cons_worldwide_trop_cyclone_18710101-19891231-006:Line=1625
TD9635
NEUMANN
MLC

All available IBTrACS Data

SEASON BASIN SUBBASIN ISO_TIME_________ NATURE LAT LON DIST2LAND LANDFALL IFLAG USA SSHS TD9636 LAT TD9636 LON TD9636 STAGE STORM SPEED STORM DIR
Year degrees north degrees east km km 1 degrees north degrees east kts degrees
1927 SP EA 1927-02-07 23:00:00 NR -15.30 152.70 569 569 __________O___ -1 -15.30 152.70 7 3 255
1927 SP EA 1927-02-08 00:00:00 NR -15.31 152.65 569 561 __________P___ -1 -15.31 152.65 7 3 257
1927 SP EA 03:00:00 NR -15.34 152.52 561 561 __________P___ -1 -15.34 152.52 7 3 258
1927 SP EA 06:00:00 NR -15.37 152.37 568 561 __________P___ -1 -15.37 152.37 7 3 260
1927 SP EA 09:00:00 NR -15.39 152.21 561 557 __________P___ -1 -15.39 152.21 7 3 263
1927 SP EA 11:00:00 NR -15.40 152.10 557 557 __________O___ -1 -15.40 152.10 7 3 264
1927 SP EA 12:00:00 NR -15.40 152.04 554 550 __________P___ -1 -15.40 152.04 7 4 267
1927 SP EA 15:00:00 NR -15.41 151.85 547 544 __________P___ -1 -15.41 151.85 7 4 268
1927 SP EA 18:00:00 NR -15.41 151.65 542 539 __________P___ -1 -15.41 151.65 7 4 271
1927 SP EA 21:00:00 NR -15.41 151.44 537 535 __________P___ -1 -15.41 151.44 7 4 273
1927 SP EA 23:00:00 NR -15.40 151.30 535 533 __________O___ -1 -15.40 151.30 7 4 275
1927 SP EA 1927-02-09 00:00:00 NR -15.39 151.23 533 530 __________P___ -1 -15.39 151.23 7 4 278
1927 SP EA 03:00:00 NR -15.36 151.03 530 516 __________P___ -1 -15.36 151.03 7 4 279
1927 SP EA 06:00:00 NR -15.33 150.83 516 515 __________P___ -1 -15.33 150.83 7 4 278
1927 SP EA 09:00:00 NR -15.31 150.63 515 515 __________P___ -1 -15.31 150.63 7 4 276
1927 SP EA 11:00:00 NR -15.30 150.50 515 515 __________O___ -1 -15.30 150.50 7 4 272
1927 SP EA 12:00:00 NR -15.30 150.43 515 496 __________P___ -1 -15.30 150.43 7 4 267
1927 SP EA 15:00:00 NR -15.31 150.24 496 487 __________P___ -1 -15.31 150.24 7 4 264
1927 SP EA 18:00:00 NR -15.34 150.04 477 463 __________P___ -1 -15.34 150.04 7 4 261
1927 SP EA 21:00:00 NR -15.37 149.84 453 443 __________P___ -1 -15.37 149.84 7 4 259
1927 SP EA 23:00:00 NR -15.40 149.70 443 433 __________O___ -1 -15.40 149.70 7 4 259
1927 SP EA 1927-02-10 00:00:00 NR -15.41 149.63 433 409 __________P___ -1 -15.41 149.63 7 4 260
1927 SP EA 03:00:00 NR -15.45 149.40 409 390 __________P___ -1 -15.45 149.40 7 4 258
1927 SP EA 06:00:00 NR -15.50 149.17 390 366 __________P___ -1 -15.50 149.17 7 5 257
1927 SP EA 09:00:00 NR -15.56 148.95 356 346 __________P___ -1 -15.56 148.95 7 4 255
1927 SP EA 11:00:00 NR -15.60 148.80 346 346 __________O___ -1 -15.60 148.80 7 4 253
1927 SP EA 12:00:00 NR -15.62 148.74 337 322 __________P___ -1 -15.62 148.74 7 3 250
1927 SP EA 15:00:00 NR -15.68 148.57 322 303 __________P___ -1 -15.68 148.57 7 4 248
1927 SP EA 18:00:00 NR -15.75 148.40 298 279 __________P___ -1 -15.75 148.40 7 4 248
1927 SP EA 21:00:00 NR -15.84 148.18 279 255 __________P___ -1 -15.84 148.18 7 5 249
1927 SP EA 23:00:00 NR -15.90 148.00 255 246 __________O___ -1 -15.90 148.00 7 6 250
1927 SP EA 1927-02-11 00:00:00 NR -15.93 147.90 246 213 __________P___ -1 -15.93 147.90 7 7 252
1927 SP EA 03:00:00 NR -16.05 147.55 204 164 __________P___ -1 -16.05 147.55 7 8 252
1927 SP EA 06:00:00 NR -16.17 147.13 156 115 __________P___ -1 -16.17 147.13 7 9 253
1927 SP EA 09:00:00 NR -16.31 146.65 115 77 __________P___ -1 -16.31 146.65 7 10 254
1927 SP EA 11:00:00 NR -16.40 146.30 77 61 __________O___ -1 -16.40 146.30 7 11 255
1927 SP EA 12:00:00 NR -16.45 146.10 61 0 __________P___ -1 -16.45 146.10 7 13 257
1927 SP EA 15:00:00 NR -16.59 145.45 0 0 __________P___ -1 -16.59 145.45 7 13 257
1927 SP EA 18:00:00 NR -16.74 144.78 0 0 __________P___ -1 -16.74 144.78 7 13 256
1927 SP EA 21:00:00 NR -16.89 144.15 0 0 __________P___ -1 -16.89 144.15 7 12 254
1927 SP EA 23:00:00 NR -17.00 143.80 0 0 __________O___ -1 -17.00 143.80 7 10 251
1927 SP EA 1927-02-12 00:00:00 NR -17.06 143.67 0 0 __________P___ -1 -17.06 143.67 7 7 242
1927 SP EA 03:00:00 NR -17.23 143.35 0 0 __________P___ -1 -17.23 143.35 7 6 236
1927 SP EA 06:00:00 NR -17.41 143.12 0 0 __________P___ -1 -17.41 143.12 7 5 228
1927 SP EA 09:00:00 NR -17.59 142.93 0 0 __________P___ -1 -17.59 142.93 7 5 226
1927 SP EA 11:00:00 NR -17.70 142.80 0 0 __________O___ -1 -17.70 142.80 7 5 228
1927 SP EA 12:00:00 NR -17.77 142.72 0 0 __________P___ -1 -17.77 142.72 7 6 228
1927 SP EA 15:00:00 NR -17.98 142.47 0 0 __________P___ -1 -17.98 142.47 7 6 230
1927 SP EA 18:00:00 NR -18.17 142.22 0 0 __________P___ -1 -18.17 142.22 7 6 238
1927 SP EA 21:00:00 NR -18.28 141.97 0 0 __________P___ -1 -18.28 141.97 7 5 252
1927 SP EA 23:00:00 NR -18.30 141.80 0 0 __________O___ -1 -18.30 141.80 7 5 268
1927 SP EA 1927-02-13 00:00:00 NR -18.29 141.71 0 0 __________P___ -1 -18.29 141.71 7 6 287
1927 SP EA 03:00:00 NR -18.19 141.42 0 0 __________P___ -1 -18.19 141.42 7 6 299
1927 SP EA 06:00:00 NR -17.99 141.14 0 0 __________P___ -1 -17.99 141.14 7 7 315
1927 SP EA 09:00:00 NR -17.72 140.91 0 0 __________P___ -1 -17.72 140.91 7 7 326
1927 SP EA 11:00:00 NR -17.50 140.80 0 0 __________O___ -1 -17.50 140.80 7 7 335
1927 SP EA 12:00:00 NR -17.38 140.76 10 10 __________P___ -1 -17.38 140.76 7 8 346
1927 SP EA 15:00:00 NR -17.01 140.68 31 31 __________P___ -1 -17.01 140.68 7 8 354
1927 SP EA 18:00:00 NR -16.61 140.66 54 54 __________P___ -1 -16.61 140.66 7 8 359
1927 SP EA 21:00:00 NR -16.19 140.68 67 67 __________P___ -1 -16.19 140.68 7 9 3
1927 SP EA 23:00:00 NR -15.90 140.70 74 __________O___ -1 -15.90 140.70 7 9 0